Time;durP1;ratioP1;P1;durP2;ratioP2;P2;SDS_P1;SDS_P2;PMS_P1;PMS_P2;Temp;Humidity;BMP_temperature;BMP_pressure;BME280_temperature;BME280_humidity;BME280_pressure;Samples;Min_cycle;Max_cycle;Signal;HPM_P1;HPM_P2
2023/01/17 00:02:51;;;;;;;36.50;22.80;;;2.20;99.90;;;;;;10298648;28;20200;-76
2023/01/17 00:13:52;;;;;;;36.00;22.53;;;2.40;99.90;;;;;;10311849;28;20209;-77
2023/01/17 01:37:35;;;;;;;39.50;24.47;;;2.60;99.90;;;;;;10278436;28;20191;-76
2023/01/17 01:42:58;;;;;;;40.77;25.53;;;2.60;99.90;;;;;;10272921;28;20195;-78
2023/01/17 01:48:55;;;;;;;40.80;26.10;;;2.50;99.90;;;;;;10251460;28;20223;-78
2023/01/17 01:54:29;;;;;;;40.77;25.63;;;2.50;99.90;;;;;;10246655;28;20214;-77
2023/01/17 02:00:00;;;;;;;50.10;26.17;;;2.50;99.90;;;;;;10289652;28;20222;-78
2023/01/17 02:05:32;;;;;;;40.97;24.37;;;2.50;99.90;;;;;;10276301;28;20231;-78
2023/01/17 02:10:55;;;;;;;41.17;25.57;;;2.50;99.90;;;;;;10251997;29;20282;-78
2023/01/17 02:16:43;;;;;;;38.10;24.93;;;2.50;99.90;;;;;;10250812;28;20248;-78
2023/01/17 02:22:23;;;;;;;37.47;24.30;;;2.60;99.90;;;;;;10238226;29;20200;-78
2023/01/17 02:28:17;;;;;;;40.17;25.27;;;2.60;99.90;;;;;;10236008;28;20540;-76
2023/01/17 02:34:01;;;;;;;35.93;23.57;;;2.60;99.90;;;;;;10315752;28;20199;-76
2023/01/17 02:39:34;;;;;;;40.80;24.23;;;2.60;99.90;;;;;;10307887;28;20225;-76
2023/01/17 02:44:55;;;;;;;36.60;22.80;;;2.60;99.90;;;;;;10297153;28;20433;-76
2023/01/17 02:50:20;;;;;;;30.53;19.60;;;2.70;99.90;;;;;;10314641;28;20285;-76
2023/01/17 02:56:10;;;;;;;30.87;19.87;;;2.60;99.90;;;;;;10313735;28;20202;-78
2023/01/17 03:01:40;;;;;;;31.70;20.40;;;2.70;99.90;;;;;;10314677;28;20193;-78
2023/01/17 03:07:09;;;;;;;30.53;19.70;;;2.70;99.90;;;;;;10299592;28;20273;-78
2023/01/17 03:12:34;;;;;;;33.90;20.03;;;2.70;99.90;;;;;;10314433;28;20191;-76
2023/01/17 03:18:00;;;;;;;28.80;18.50;;;2.70;99.90;;;;;;10329544;28;20253;-78
2023/01/17 03:23:21;;;;;;;27.60;17.87;;;2.60;99.90;;;;;;10270843;28;20370;-78
2023/01/17 03:28:42;;;;;;;23.93;16.10;;;2.70;99.90;;;;;;10288837;28;20296;-78
2023/01/17 03:34:03;;;;;;;28.27;17.13;;;2.70;99.90;;;;;;10296517;28;20209;-76
2023/01/17 03:39:25;;;;;;;27.00;16.73;;;2.70;99.90;;;;;;10314058;28;20261;-78
2023/01/17 03:44:46;;;;;;;22.47;15.13;;;2.70;99.90;;;;;;10313159;28;20432;-77
2023/01/17 03:50:08;;;;;;;24.80;16.73;;;2.70;99.90;;;;;;10297038;28;20309;-76
2023/01/17 03:55:29;;;;;;;27.43;16.90;;;2.70;99.90;;;;;;10309496;28;20214;-76
2023/01/17 04:00:50;;;;;;;23.27;15.20;;;2.70;99.90;;;;;;10320725;28;20403;-76
2023/01/17 04:06:12;;;;;;;25.47;15.87;;;2.70;99.90;;;;;;10320688;28;20225;-76
2023/01/17 04:11:33;;;;;;;25.53;15.50;;;2.80;99.90;;;;;;10321603;28;20252;-76
2023/01/17 04:16:55;;;;;;;25.70;16.53;;;2.80;99.90;;;;;;10320854;28;20209;-76
2023/01/17 04:22:16;;;;;;;27.43;16.30;;;2.80;99.90;;;;;;10320446;28;20516;-77
2023/01/17 04:27:37;;;;;;;24.50;15.97;;;2.80;99.90;;;;;;10321016;28;20228;-78
2023/01/17 04:32:58;;;;;;;26.67;17.57;;;2.80;99.90;;;;;;10318637;28;20203;-76
2023/01/17 04:38:20;;;;;;;24.40;15.17;;;2.80;99.90;;;;;;10319987;28;20206;-77
2023/01/17 04:43:41;;;;;;;25.60;15.30;;;2.80;99.90;;;;;;10319789;28;20467;-78
2023/01/17 04:49:02;;;;;;;22.60;14.87;;;2.80;99.90;;;;;;10317444;28;20615;-78
2023/01/17 04:54:23;;;;;;;20.73;13.33;;;2.80;99.90;;;;;;10319881;28;20488;-77
2023/01/17 04:59:45;;;;;;;23.30;13.13;;;2.80;99.90;;;;;;10319043;28;20467;-76
2023/01/17 05:05:07;;;;;;;23.37;14.07;;;2.80;99.90;;;;;;10318515;28;20273;-79
2023/01/17 05:10:28;;;;;;;20.53;13.33;;;2.80;99.90;;;;;;10318574;28;20238;-77
2023/01/17 05:15:50;;;;;;;22.37;14.73;;;2.80;99.90;;;;;;10317817;28;20234;-76
2023/01/17 05:21:10;;;;;;;22.90;15.33;;;2.80;99.90;;;;;;10326778;28;20221;-78
2023/01/17 05:26:32;;;;;;;31.93;18.97;;;2.80;99.90;;;;;;10317890;28;20234;-78
2023/01/17 05:31:52;;;;;;;21.30;13.87;;;2.80;99.90;;;;;;10316717;28;20238;-76
2023/01/17 05:37:13;;;;;;;25.63;14.03;;;2.90;99.90;;;;;;10315926;28;20203;-76
2023/01/17 05:42:34;;;;;;;20.30;13.60;;;2.90;99.90;;;;;;10316818;28;20307;-77
2023/01/17 05:47:57;;;;;;;38.47;21.83;;;2.90;99.90;;;;;;10317015;28;20536;-77
2023/01/17 05:53:18;;;;;;;59.87;28.67;;;2.90;99.90;;;;;;10276509;28;20246;-76
2023/01/17 05:58:39;;;;;;;30.40;16.87;;;3.00;99.90;;;;;;10304881;28;20209;-76
2023/01/17 06:04:00;;;;;;;27.00;17.57;;;3.00;99.90;;;;;;10317416;28;20233;-75
2023/01/17 06:09:21;;;;;;;31.70;20.50;;;3.00;99.90;;;;;;10314381;28;20543;-78
2023/01/17 06:14:42;;;;;;;22.23;15.87;;;3.00;99.90;;;;;;10330950;28;20198;-75
2023/01/17 06:20:06;;;;;;;23.23;16.83;;;3.00;99.90;;;;;;10316679;28;20199;-76
2023/01/17 06:25:27;;;;;;;33.07;20.40;;;3.00;99.90;;;;;;10314680;28;20222;-78
2023/01/17 06:30:48;;;;;;;32.57;20.57;;;3.10;99.90;;;;;;10314574;28;20559;-76
2023/01/17 06:36:09;;;;;;;29.70;19.57;;;3.10;99.90;;;;;;10315221;28;20202;-78
2023/01/17 06:41:30;;;;;;;34.13;21.37;;;3.10;99.90;;;;;;10315676;28;20190;-76
2023/01/17 06:46:54;;;;;;;45.83;27.80;;;3.10;99.90;;;;;;10314505;28;20305;-78
2023/01/17 06:52:15;;;;;;;40.83;25.93;;;3.20;99.90;;;;;;10315330;28;20385;-76
2023/01/17 06:57:36;;;;;;;35.87;23.07;;;3.20;99.90;;;;;;10314362;28;20213;-76
2023/01/17 07:02:57;;;;;;;48.50;29.03;;;3.30;99.90;;;;;;10314944;28;20194;-76
2023/01/17 07:08:19;;;;;;;47.50;29.37;;;3.30;99.90;;;;;;10314293;28;20249;-76
2023/01/17 07:13:40;;;;;;;44.50;28.67;;;3.40;99.90;;;;;;10313530;28;20493;-76
2023/01/17 07:19:02;;;;;;;48.53;29.77;;;3.40;99.90;;;;;;10314006;28;20209;-76
2023/01/17 07:24:23;;;;;;;52.17;32.23;;;3.40;99.90;;;;;;10314228;28;20262;-76
2023/01/17 07:29:43;;;;;;;60.43;39.00;;;3.40;99.90;;;;;;10294511;28;20321;-76
2023/01/17 07:35:06;;;;;;;37.47;24.87;;;3.40;99.90;;;;;;10321400;28;20194;-76
2023/01/17 07:40:27;;;;;;;36.50;24.73;;;3.40;99.90;;;;;;10300043;28;20242;-76
2023/01/17 07:45:52;;;;;;;50.37;29.80;;;3.40;99.90;;;;;;10320599;28;20253;-76
2023/01/17 07:51:13;;;;;;;52.40;29.77;;;3.40;99.90;;;;;;10320808;28;20226;-77
2023/01/17 07:56:34;;;;;;;45.23;25.20;;;3.40;99.90;;;;;;10308443;28;20274;-76
2023/01/17 08:01:55;;;;;;;41.33;26.33;;;3.40;99.90;;;;;;10281438;28;20195;-76
2023/01/17 08:07:16;;;;;;;50.23;28.77;;;3.40;99.90;;;;;;10302836;28;20260;-75
2023/01/17 08:12:38;;;;;;;38.80;25.63;;;3.40;99.90;;;;;;10321062;28;20418;-75
2023/01/17 08:17:59;;;;;;;47.10;25.77;;;3.40;99.90;;;;;;10320239;28;20209;-76
2023/01/17 08:23:20;;;;;;;45.53;27.03;;;3.40;99.90;;;;;;10286882;28;20535;-77
2023/01/17 08:28:41;;;;;;;46.50;27.47;;;3.40;99.90;;;;;;10343891;28;20777;-77
2023/01/17 08:34:02;;;;;;;43.90;26.77;;;3.40;99.90;;;;;;10296810;28;20220;-80
2023/01/17 08:39:23;;;;;;;38.17;25.00;;;3.30;99.90;;;;;;10317143;28;20286;-80
2023/01/17 08:44:44;;;;;;;42.27;26.60;;;3.30;99.90;;;;;;10311841;28;20199;-79
2023/01/17 08:50:06;;;;;;;38.63;24.73;;;3.30;99.90;;;;;;10314661;28;20252;-76
2023/01/17 08:55:27;;;;;;;48.03;27.00;;;3.40;99.90;;;;;;10311949;28;20224;-78
2023/01/17 09:00:48;;;;;;;41.77;26.10;;;3.50;99.90;;;;;;10345872;28;20233;-79
2023/01/17 09:06:12;;;;;;;37.70;23.97;;;3.40;99.90;;;;;;10314169;28;20210;-78
2023/01/17 09:11:33;;;;;;;43.93;27.07;;;3.50;99.90;;;;;;10313619;28;20212;-80
2023/01/17 09:16:54;;;;;;;34.77;23.60;;;3.60;99.90;;;;;;10313439;28;20191;-79
2023/01/17 09:22:16;;;;;;;52.93;30.97;;;3.50;99.90;;;;;;10309050;28;20211;-80
2023/01/17 09:27:36;;;;;;;61.17;32.87;;;3.50;99.90;;;;;;10312262;28;20219;-78
2023/01/17 09:32:58;;;;;;;60.03;33.63;;;3.50;99.90;;;;;;10244324;29;20323;-80
2023/01/17 09:38:20;;;;;;;45.17;27.23;;;3.50;99.90;;;;;;10193368;29;20192;-79
2023/01/17 09:43:50;;;;;;;44.87;26.60;;;3.40;99.90;;;;;;10220244;29;20387;-80
2023/01/17 09:49:28;;;;;;;57.20;30.43;;;3.50;99.90;;;;;;10232221;29;20240;-80
2023/01/17 09:54:50;;;;;;;42.77;23.80;;;3.60;99.90;;;;;;10231123;29;20287;-79
2023/01/17 10:00:33;;;;;;;50.77;29.47;;;3.70;99.90;;;;;;10232133;29;20208;-80
2023/01/17 10:06:24;;;;;;;32.63;19.90;;;3.80;99.90;;;;;;10204614;29;20203;-79
2023/01/17 10:11:57;;;;;;;28.77;18.30;;;3.80;99.90;;;;;;10202966;29;20208;-80
2023/01/17 10:17:21;;;;;;;31.20;18.70;;;3.90;99.80;;;;;;10214011;29;20205;-79
2023/01/17 10:23:02;;;;;;;32.80;18.87;;;3.80;99.90;;;;;;10225897;29;20550;-80
2023/01/17 10:28:45;;;;;;;42.37;23.23;;;3.80;99.90;;;;;;10265090;28;20241;-79
2023/01/17 10:34:18;;;;;;;49.80;24.43;;;3.80;99.90;;;;;;10323374;28;20509;-78
2023/01/17 10:39:48;;;;;;;30.80;18.80;;;3.80;99.90;;;;;;10349569;28;20210;-77
2023/01/17 10:45:19;;;;;;;35.57;21.67;;;3.80;99.90;;;;;;10310330;28;20286;-77
2023/01/17 10:50:48;;;;;;;33.27;18.93;;;3.70;99.90;;;;;;10291930;28;20249;-78
2023/01/17 10:56:13;;;;;;;29.30;18.83;;;3.80;99.90;;;;;;10270761;28;20199;-81
2023/01/17 11:01:34;;;;;;;29.77;17.83;;;3.90;97.60;;;;;;10264085;28;20290;-79
2023/01/17 11:07:13;;;;;;;24.73;16.37;;;4.00;97.50;;;;;;10293728;28;20199;-79
2023/01/17 11:12:44;;;;;;;33.30;19.37;;;4.00;80.50;;;;;;10308621;28;20209;-80
2023/01/17 11:18:15;;;;;;;29.40;17.73;;;3.90;93.70;;;;;;10310346;28;20197;-78
2023/01/17 11:23:38;;;;;;;34.13;18.33;;;4.00;94.00;;;;;;10290297;28;20580;-80
2023/01/17 11:29:29;;;;;;;25.97;15.87;;;4.00;66.50;;;;;;10307795;28;20249;-77
2023/01/17 11:35:15;;;;;;;27.57;18.50;;;3.80;83.20;;;;;;10334591;28;20277;-77
2023/01/17 11:40:43;;;;;;;29.47;18.50;;;3.80;91.70;;;;;;10317120;28;20512;-80
2023/01/17 11:46:17;;;;;;;30.93;20.90;;;3.80;85.10;;;;;;10296944;28;20214;-78
2023/01/17 11:51:41;;;;;;;53.43;27.73;;;3.90;99.90;;;;;;10290527;28;20834;-80
2023/01/17 11:57:02;;;;;;;40.10;21.33;;;3.90;99.90;;;;;;10308841;28;20229;-79
2023/01/17 12:02:36;;;;;;;30.07;18.50;;;3.90;92.10;;;;;;10307776;28;20202;-78
2023/01/17 12:08:20;;;;;;;22.33;15.30;;;3.80;99.90;;;;;;10308222;28;20543;-78
2023/01/17 12:14:04;;;;;;;24.70;15.47;;;4.00;82.30;;;;;;10293080;28;20294;-79
2023/01/17 12:19:31;;;;;;;38.30;21.17;;;3.80;99.90;;;;;;10305584;28;20230;-77
2023/01/17 12:24:58;;;;;;;28.33;16.27;;;3.80;99.90;;;;;;10310585;28;20217;-83
2023/01/17 12:30:41;;;;;;;34.77;22.10;;;3.80;99.90;;;;;;10301366;28;20242;-85
2023/01/17 12:36:22;;;;;;;28.53;16.97;;;3.90;99.90;;;;;;10273394;28;20737;-79
2023/01/17 12:41:43;;;;;;;26.70;14.60;;;3.90;99.90;;;;;;10312256;28;20291;-76
2023/01/17 12:47:06;;;;;;;25.97;15.00;;;4.00;99.90;;;;;;10314323;28;20540;-80
2023/01/17 12:52:45;;;;;;;32.60;17.53;;;4.00;99.90;;;;;;10312839;28;20203;-79
2023/01/17 12:58:15;;;;;;;27.63;16.80;;;4.00;98.80;;;;;;10299462;28;20204;-83
2023/01/17 13:03:54;;;;;;;23.13;13.97;;;4.00;91.30;;;;;;10282905;28;20214;-84
2023/01/17 13:09:21;;;;;;;20.63;12.33;;;3.90;93.20;;;;;;10300552;28;20223;-79
2023/01/17 13:14:45;;;;;;;24.50;14.27;;;3.90;99.10;;;;;;10297820;28;20214;-81
2023/01/17 13:20:06;;;;;;;22.90;13.70;;;3.90;99.90;;;;;;10276296;28;20202;-75
2023/01/17 13:25:44;;;;;;;22.17;12.83;;;4.00;89.70;;;;;;10305325;28;20217;-78
2023/01/17 13:31:41;;;;;;;20.53;11.80;;;4.00;99.90;;;;;;10285143;28;20258;-78
2023/01/17 13:37:05;;;;;;;20.43;10.00;;;4.10;84.60;;;;;;10188252;29;20245;-76
2023/01/17 13:42:44;;;;;;;19.33;10.57;;;4.10;61.90;;;;;;10178878;29;20308;-77
2023/01/17 13:48:11;;;;;;;18.10;10.47;;;4.20;53.60;;;;;;10189294;29;20304;-78
2023/01/17 13:53:35;;;;;;;30.47;15.47;;;4.10;68.00;;;;;;10187446;29;20578;-78
2023/01/17 13:59:01;;;;;;;22.17;12.07;;;4.30;29.20;;;;;;10187168;29;20225;-78
2023/01/17 14:04:24;;;;;;;14.53;9.37;;;4.20;36.10;;;;;;10187557;29;20472;-80
2023/01/17 14:09:48;;;;;;;15.87;10.37;;;4.20;29.90;;;;;;10258760;28;20427;-80
2023/01/17 14:15:22;;;;;;;15.33;9.20;;;4.30;10.10;;;;;;10309142;28;20455;-78
2023/01/17 14:20:50;;;;;;;15.30;7.43;;;4.20;25.90;;;;;;10310669;28;20520;-80
2023/01/17 14:26:53;;;;;;;21.37;11.80;;;4.20;26.20;;;;;;10284668;28;20239;-78
2023/01/17 14:32:21;;;;;;;11.87;8.83;;;4.20;29.50;;;;;;10115563;29;20254;-78
2023/01/17 14:37:50;;;;;;;18.57;10.60;;;4.20;23.40;;;;;;10133838;29;20217;-80
2023/01/17 14:43:17;;;;;;;19.20;10.43;;;4.20;23.20;;;;;;10137367;29;20266;-83
2023/01/17 14:48:40;;;;;;;28.47;13.93;;;4.10;31.30;;;;;;10135780;29;20263;-79
2023/01/17 14:54:20;;;;;;;9.20;5.97;;;4.10;29.60;;;;;;10109915;29;20273;-81
2023/01/17 14:59:41;;;;;;;9.73;6.33;;;4.10;28.20;;;;;;10124016;29;20224;-80
2023/01/17 15:05:04;;;;;;;31.93;16.73;;;4.10;33.50;;;;;;10167561;28;20210;-78
2023/01/17 15:10:29;;;;;;;26.17;15.00;;;4.00;51.50;;;;;;10307216;28;20234;-78
2023/01/17 15:16:02;;;;;;;19.73;9.97;;;4.00;26.30;;;;;;10295897;28;20187;-78
2023/01/17 15:21:35;;;;;;;41.83;14.90;;;3.90;21.70;;;;;;10283745;28;20207;-78
2023/01/17 15:26:56;;;;;;;63.20;30.77;;;3.90;7.50;;;;;;10305124;28;20222;-78
2023/01/17 15:32:21;;;;;;;13.67;8.63;;;3.80;6.60;;;;;;10314071;28;20233;-80
2023/01/17 15:37:43;;;;;;;7.53;4.33;;;3.90;1.00;;;;;;10322976;28;20230;-80
2023/01/17 15:43:05;;;;;;;15.87;5.60;;;3.80;1.00;;;;;;10294757;28;20217;-80
2023/01/17 15:48:43;;;;;;;18.63;11.77;;;3.80;1.00;;;;;;10306830;28;20266;-83
2023/01/17 15:54:46;;;;;;;14.03;8.13;;;3.80;4.90;;;;;;10309838;28;20254;-78
2023/01/17 16:00:23;;;;;;;25.80;14.33;;;3.70;14.50;;;;;;10099659;29;20239;-77
2023/01/17 16:05:45;;;;;;;16.83;9.50;;;3.80;20.10;;;;;;10115803;29;20265;-78
2023/01/17 16:11:10;;;;;;;21.03;9.90;;;3.70;23.70;;;;;;10116965;29;20264;-80
2023/01/17 16:16:31;;;;;;;30.87;12.10;;;3.70;11.20;;;;;;10119036;29;20242;-79
2023/01/17 16:21:55;;;;;;;24.47;12.03;;;3.70;26.10;;;;;;10118402;29;20213;-76
2023/01/17 16:27:17;;;;;;;12.87;7.83;;;3.80;25.90;;;;;;10146109;28;20402;-78
2023/01/17 16:32:37;;;;;;;17.90;9.60;;;3.80;20.90;;;;;;10302552;28;20280;-79
2023/01/17 16:38:07;;;;;;;13.20;7.67;;;3.90;16.30;;;;;;10304173;28;20475;-79
2023/01/17 16:43:28;;;;;;;13.63;5.87;;;3.90;1.00;;;;;;10320611;28;20190;-77
2023/01/17 16:48:49;;;;;;;12.40;6.10;;;3.90;1.00;;;;;;10301416;28;20224;-79
2023/01/17 16:54:10;;;;;;;12.27;5.03;;;3.80;1.00;;;;;;10306148;28;20198;-77
2023/01/17 16:59:31;;;;;;;15.00;5.97;;;3.70;1.00;;;;;;10305764;28;20202;-78
2023/01/17 17:05:10;;;;;;;14.70;6.37;;;3.70;9.00;;;;;;10316289;28;20265;-79
2023/01/17 17:10:31;;;;;;;12.30;5.07;;;3.60;24.40;;;;;;10339394;28;20277;-79
2023/01/17 17:15:52;;;;;;;43.83;15.83;;;3.40;40.20;;;;;;10315233;28;20226;-79
2023/01/17 17:21:13;;;;;;;13.77;7.90;;;3.30;82.20;;;;;;10320364;28;20199;-79
2023/01/17 17:26:35;;;;;;;4.13;2.90;;;3.20;99.90;;;;;;10318470;28;20206;-79
2023/01/17 17:31:56;;;;;;;7.73;3.50;;;3.10;99.90;;;;;;10318507;28;20239;-79
2023/01/17 17:37:18;;;;;;;9.17;5.80;;;3.10;99.80;;;;;;10317551;28;20565;-79
2023/01/17 17:42:40;;;;;;;9.93;5.03;;;3.10;98.40;;;;;;10316452;28;20205;-79
2023/01/17 17:48:02;;;;;;;15.10;7.27;;;3.00;99.90;;;;;;10316918;28;20203;-79
2023/01/17 17:53:23;;;;;;;10.93;5.47;;;3.00;99.90;;;;;;10315844;28;20201;-79
2023/01/17 17:58:44;;;;;;;42.87;18.50;;;3.00;99.90;;;;;;10317343;28;20214;-79
2023/01/17 18:04:07;;;;;;;37.37;16.50;;;3.00;99.90;;;;;;10316643;28;20187;-79
2023/01/17 18:09:28;;;;;;;24.07;11.60;;;3.00;99.90;;;;;;10315207;28;20228;-79
2023/01/17 18:14:49;;;;;;;20.40;7.70;;;3.00;99.90;;;;;;10315520;28;20194;-79
2023/01/17 18:20:10;;;;;;;11.10;6.07;;;3.00;99.90;;;;;;10315886;28;20203;-79
2023/01/17 18:25:34;;;;;;;21.87;9.00;;;3.00;99.90;;;;;;10316508;28;20198;-79
2023/01/17 18:30:56;;;;;;;13.10;6.03;;;3.00;99.90;;;;;;10275341;28;20263;-79
2023/01/17 18:36:17;;;;;;;19.37;8.13;;;3.00;99.90;;;;;;10281133;28;20207;-79
2023/01/17 18:41:38;;;;;;;61.73;18.40;;;3.00;99.90;;;;;;10301961;28;20228;-79
2023/01/17 18:47:03;;;;;;;66.33;23.53;;;3.00;99.90;;;;;;10315879;28;20190;-79
2023/01/17 18:52:24;;;;;;;71.37;23.73;;;3.00;99.90;;;;;;10312269;28;20230;-78
2023/01/17 18:57:46;;;;;;;44.83;17.50;;;3.00;99.90;;;;;;10315844;28;20233;-80
2023/01/17 19:03:07;;;;;;;37.43;16.60;;;3.00;99.90;;;;;;10315599;28;20199;-79
2023/01/17 19:08:32;;;;;;;25.67;13.17;;;3.00;99.90;;;;;;10314565;28;20220;-79
2023/01/17 19:13:52;;;;;;;14.17;8.23;;;3.00;99.90;;;;;;10315676;28;20239;-78
2023/01/17 19:19:14;;;;;;;15.97;8.43;;;3.00;99.90;;;;;;10313329;28;20500;-79
2023/01/17 19:24:37;;;;;;;20.67;9.50;;;3.00;99.90;;;;;;10313200;28;20446;-78
2023/01/17 19:29:58;;;;;;;31.47;11.77;;;3.00;99.90;;;;;;10320071;28;20238;-78
2023/01/17 19:35:19;;;;;;;15.80;7.73;;;3.00;99.90;;;;;;10322955;28;20212;-79
2023/01/17 19:40:42;;;;;;;13.50;8.23;;;3.10;99.90;;;;;;10321037;28;20568;-78
2023/01/17 19:46:04;;;;;;;19.73;8.40;;;3.10;99.90;;;;;;10304627;28;20385;-78
2023/01/17 19:51:26;;;;;;;34.97;14.27;;;3.00;99.90;;;;;;10307950;28;20245;-78
2023/01/17 19:56:47;;;;;;;26.60;14.47;;;3.00;99.90;;;;;;10308121;28;20194;-75
2023/01/17 20:02:10;;;;;;;42.20;19.27;;;3.00;99.90;;;;;;10331192;28;20210;-74
2023/01/17 20:07:32;;;;;;;52.47;20.97;;;3.00;99.90;;;;;;10292549;28;20203;-78
2023/01/17 20:12:53;;;;;;;44.80;21.73;;;3.00;99.90;;;;;;10321089;28;20302;-77
2023/01/17 20:18:15;;;;;;;44.97;21.77;;;3.00;99.90;;;;;;10320662;28;20196;-78
2023/01/17 20:23:37;;;;;;;49.13;22.87;;;2.90;99.90;;;;;;10320433;28;20245;-80
2023/01/17 20:29:00;;;;;;;22.93;12.57;;;2.90;99.90;;;;;;10320841;28;20233;-78
2023/01/17 20:34:24;;;;;;;20.43;11.03;;;2.90;99.90;;;;;;10301063;28;20213;-80
2023/01/17 20:39:46;;;;;;;17.47;9.07;;;2.90;99.90;;;;;;10319815;28;20395;-80
2023/01/17 20:45:08;;;;;;;23.87;11.20;;;2.80;99.90;;;;;;10319264;28;20198;-78
2023/01/17 20:50:29;;;;;;;16.27;8.50;;;2.80;99.90;;;;;;10316908;28;20513;-79
2023/01/17 20:55:55;;;;;;;24.43;12.23;;;2.80;99.90;;;;;;10319245;28;20492;-79
2023/01/17 21:01:17;;;;;;;22.60;8.63;;;2.80;97.30;;;;;;10319747;28;20264;-80
2023/01/17 21:06:41;;;;;;;11.53;6.50;;;2.70;92.80;;;;;;10289217;28;20199;-80
2023/01/17 21:12:02;;;;;;;29.57;11.40;;;2.70;91.20;;;;;;10300309;28;20232;-81
2023/01/17 21:17:23;;;;;;;28.73;10.70;;;2.70;92.30;;;;;;10319314;28;20270;-80
2023/01/17 21:22:45;;;;;;;28.17;10.60;;;2.70;98.20;;;;;;10301970;28;20203;-80
2023/01/17 21:28:07;;;;;;;24.93;10.70;;;2.80;92.70;;;;;;10317595;28;20264;-78
2023/01/17 21:33:28;;;;;;;11.33;6.10;;;2.80;99.90;;;;;;10288105;28;20216;-78
2023/01/17 21:38:55;;;;;;;18.10;8.93;;;2.70;99.90;;;;;;10287647;28;20229;-79
2023/01/17 21:44:21;;;;;;;25.97;12.80;;;2.60;99.90;;;;;;10290688;28;20210;-78
2023/01/17 21:49:43;;;;;;;24.13;13.07;;;2.50;99.90;;;;;;10276247;28;20250;-77
2023/01/17 22:00:44;;;;;;;21.80;11.53;;;2.30;99.90;;;;;;10318018;28;20198;-78
2023/01/17 22:06:05;;;;;;;25.33;14.70;;;2.20;99.90;;;;;;10324210;28;20248;-80
2023/01/17 22:11:29;;;;;;;21.40;13.63;;;2.10;99.90;;;;;;10328696;28;20397;-80
2023/01/17 22:16:51;;;;;;;21.87;12.93;;;2.00;99.90;;;;;;10315972;28;20204;-78
2023/01/17 22:22:13;;;;;;;22.83;11.77;;;2.00;99.90;;;;;;10314975;28;20238;-80
2023/01/17 22:27:34;;;;;;;24.63;13.00;;;2.00;99.90;;;;;;10298877;28;20253;-78
2023/01/17 22:32:56;;;;;;;31.77;15.43;;;1.90;99.90;;;;;;10316340;28;20221;-79
2023/01/17 22:38:18;;;;;;;29.87;15.97;;;1.90;99.90;;;;;;10314609;28;20518;-79
2023/01/17 22:43:42;;;;;;;44.50;21.30;;;1.80;99.90;;;;;;10313925;28;20380;-78
2023/01/17 22:49:06;;;;;;;48.40;22.90;;;1.70;99.90;;;;;;10315113;28;20222;-80
2023/01/17 22:54:27;;;;;;;49.63;24.37;;;1.60;99.90;;;;;;10314367;28;20221;-81
2023/01/17 22:59:49;;;;;;;47.47;25.07;;;1.40;99.90;;;;;;10315154;28;20198;-78
2023/01/17 23:05:11;;;;;;;38.43;21.10;;;1.30;99.90;;;;;;10273600;28;20199;-78
2023/01/17 23:22:16;;;;;;;40.53;19.70;;;1.00;99.90;;;;;;10340999;28;20202;-78
2023/01/17 23:33:25;;;;;;;15.73;8.83;;;1.10;99.90;;;;;;10310835;28;20236;-78
2023/01/17 23:38:47;;;;;;;15.17;9.13;;;1.10;99.90;;;;;;10300271;28;20268;-78
2023/01/17 23:44:09;;;;;;;19.30;8.23;;;1.20;99.90;;;;;;10274752;28;20203;-77
2023/01/17 23:49:30;;;;;;;17.70;10.33;;;1.20;99.90;;;;;;10307706;28;20226;-78
2023/01/17 23:54:51;;;;;;;19.93;11.90;;;1.10;99.90;;;;;;10283460;28;20213;-78
